sensor_id;sensor_type;location;lat;lon;timestamp;P1;durP1;ratioP1;P2;durP2;ratioP2
68315;SDS011;55508;54.368;18.406;2024-01-15T00:00:59;2.33;;;1.90;;
68315;SDS011;55508;54.368;18.406;2024-01-15T00:03:27;1.88;;;1.77;;
68315;SDS011;55508;54.368;18.406;2024-01-15T00:05:54;2.97;;;2.05;;
68315;SDS011;55508;54.368;18.406;2024-01-15T00:08:21;2.25;;;1.70;;
68315;SDS011;55508;54.368;18.406;2024-01-15T00:10:48;3.08;;;1.98;;
68315;SDS011;55508;54.368;18.406;2024-01-15T00:13:15;1.48;;;1.38;;
68315;SDS011;55508;54.368;18.406;2024-01-15T00:15:42;2.50;;;2.00;;
68315;SDS011;55508;54.368;18.406;2024-01-15T00:18:09;2.95;;;2.20;;
68315;SDS011;55508;54.368;18.406;2024-01-15T00:20:36;3.67;;;2.88;;
68315;SDS011;55508;54.368;18.406;2024-01-15T00:23:03;7.75;;;5.13;;
68315;SDS011;55508;54.368;18.406;2024-01-15T00:25:30;6.03;;;3.53;;
68315;SDS011;55508;54.368;18.406;2024-01-15T00:27:57;7.28;;;4.25;;
68315;SDS011;55508;54.368;18.406;2024-01-15T00:30:24;10.65;;;5.93;;
68315;SDS011;55508;54.368;18.406;2024-01-15T00:32:51;9.43;;;5.65;;
68315;SDS011;55508;54.368;18.406;2024-01-15T00:35:18;5.75;;;2.95;;
68315;SDS011;55508;54.368;18.406;2024-01-15T00:37:45;2.80;;;2.42;;
68315;SDS011;55508;54.368;18.406;2024-01-15T00:40:12;4.03;;;2.17;;
68315;SDS011;55508;54.368;18.406;2024-01-15T00:42:39;2.22;;;1.70;;
68315;SDS011;55508;54.368;18.406;2024-01-15T00:45:06;3.28;;;1.67;;
68315;SDS011;55508;54.368;18.406;2024-01-15T00:47:34;2.05;;;1.58;;
68315;SDS011;55508;54.368;18.406;2024-01-15T00:50:01;2.22;;;1.40;;
68315;SDS011;55508;54.368;18.406;2024-01-15T00:52:29;2.10;;;1.48;;
68315;SDS011;55508;54.368;18.406;2024-01-15T00:54:56;1.80;;;1.50;;
68315;SDS011;55508;54.368;18.406;2024-01-15T00:57:23;3.25;;;1.92;;
68315;SDS011;55508;54.368;18.406;2024-01-15T00:59:50;2.83;;;1.80;;
68315;SDS011;55508;54.368;18.406;2024-01-15T01:02:17;4.00;;;1.90;;
68315;SDS011;55508;54.368;18.406;2024-01-15T01:04:44;5.82;;;2.08;;
68315;SDS011;55508;54.368;18.406;2024-01-15T01:07:11;4.10;;;1.92;;
68315;SDS011;55508;54.368;18.406;2024-01-15T01:09:38;3.80;;;3.10;;
68315;SDS011;55508;54.368;18.406;2024-01-15T01:12:05;4.90;;;2.83;;
68315;SDS011;55508;54.368;18.406;2024-01-15T01:14:32;4.75;;;2.50;;
68315;SDS011;55508;54.368;18.406;2024-01-15T01:16:59;2.80;;;2.55;;
68315;SDS011;55508;54.368;18.406;2024-01-15T01:19:26;4.00;;;2.47;;
68315;SDS011;55508;54.368;18.406;2024-01-15T01:21:54;3.40;;;2.60;;
68315;SDS011;55508;54.368;18.406;2024-01-15T01:24:21;4.65;;;2.30;;
68315;SDS011;55508;54.368;18.406;2024-01-15T01:26:48;4.13;;;1.98;;
68315;SDS011;55508;54.368;18.406;2024-01-15T01:29:15;3.17;;;1.65;;
68315;SDS011;55508;54.368;18.406;2024-01-15T01:31:43;2.33;;;1.73;;
68315;SDS011;55508;54.368;18.406;2024-01-15T01:34:13;2.80;;;2.00;;
68315;SDS011;55508;54.368;18.406;2024-01-15T01:36:41;2.22;;;2.03;;
68315;SDS011;55508;54.368;18.406;2024-01-15T01:39:09;2.20;;;2.00;;
68315;SDS011;55508;54.368;18.406;2024-01-15T01:41:36;4.15;;;1.98;;
68315;SDS011;55508;54.368;18.406;2024-01-15T01:44:04;1.83;;;1.70;;
68315;SDS011;55508;54.368;18.406;2024-01-15T01:46:31;3.85;;;2.13;;
68315;SDS011;55508;54.368;18.406;2024-01-15T01:48:58;2.67;;;2.22;;
68315;SDS011;55508;54.368;18.406;2024-01-15T01:51:32;2.50;;;1.70;;
68315;SDS011;55508;54.368;18.406;2024-01-15T01:54:00;2.67;;;2.03;;
68315;SDS011;55508;54.368;18.406;2024-01-15T01:56:27;2.47;;;2.15;;
68315;SDS011;55508;54.368;18.406;2024-01-15T01:58:54;3.15;;;2.15;;
68315;SDS011;55508;54.368;18.406;2024-01-15T02:01:21;2.10;;;1.90;;
68315;SDS011;55508;54.368;18.406;2024-01-15T02:03:48;2.65;;;2.03;;
68315;SDS011;55508;54.368;18.406;2024-01-15T02:06:15;2.40;;;2.30;;
68315;SDS011;55508;54.368;18.406;2024-01-15T02:08:43;4.43;;;2.80;;
68315;SDS011;55508;54.368;18.406;2024-01-15T02:11:10;3.78;;;3.38;;
68315;SDS011;55508;54.368;18.406;2024-01-15T02:13:38;4.07;;;3.15;;
68315;SDS011;55508;54.368;18.406;2024-01-15T02:16:05;3.28;;;2.97;;
68315;SDS011;55508;54.368;18.406;2024-01-15T02:18:42;2.67;;;2.47;;
68315;SDS011;55508;54.368;18.406;2024-01-15T02:21:10;2.60;;;2.40;;
68315;SDS011;55508;54.368;18.406;2024-01-15T02:23:37;3.45;;;3.00;;
68315;SDS011;55508;54.368;18.406;2024-01-15T02:26:05;3.80;;;3.38;;
68315;SDS011;55508;54.368;18.406;2024-01-15T02:28:32;5.28;;;3.63;;
68315;SDS011;55508;54.368;18.406;2024-01-15T02:30:59;3.72;;;3.33;;
68315;SDS011;55508;54.368;18.406;2024-01-15T02:33:26;3.30;;;3.00;;
68315;SDS011;55508;54.368;18.406;2024-01-15T02:35:53;4.88;;;3.40;;
68315;SDS011;55508;54.368;18.406;2024-01-15T02:38:20;2.80;;;2.60;;
68315;SDS011;55508;54.368;18.406;2024-01-15T02:40:49;3.42;;;3.20;;
68315;SDS011;55508;54.368;18.406;2024-01-15T02:43:16;9.27;;;6.00;;
68315;SDS011;55508;54.368;18.406;2024-01-15T02:45:45;9.18;;;6.40;;
68315;SDS011;55508;54.368;18.406;2024-01-15T02:48:14;11.05;;;7.35;;
68315;SDS011;55508;54.368;18.406;2024-01-15T02:50:42;12.25;;;7.47;;
68315;SDS011;55508;54.368;18.406;2024-01-15T02:53:08;10.35;;;6.82;;
68315;SDS011;55508;54.368;18.406;2024-01-15T02:55:36;7.55;;;6.03;;
68315;SDS011;55508;54.368;18.406;2024-01-15T02:58:03;7.60;;;6.68;;
68315;SDS011;55508;54.368;18.406;2024-01-15T03:00:30;6.72;;;6.03;;
68315;SDS011;55508;54.368;18.406;2024-01-15T03:02:57;4.10;;;3.70;;
68315;SDS011;55508;54.368;18.406;2024-01-15T03:05:24;4.35;;;3.13;;
68315;SDS011;55508;54.368;18.406;2024-01-15T03:07:51;3.25;;;3.05;;
68315;SDS011;55508;54.368;18.406;2024-01-15T03:10:18;3.40;;;3.10;;
68315;SDS011;55508;54.368;18.406;2024-01-15T03:12:45;3.08;;;2.83;;
68315;SDS011;55508;54.368;18.406;2024-01-15T03:15:12;2.70;;;2.50;;
68315;SDS011;55508;54.368;18.406;2024-01-15T03:17:41;3.30;;;3.05;;
68315;SDS011;55508;54.368;18.406;2024-01-15T03:20:09;3.85;;;3.20;;
68315;SDS011;55508;54.368;18.406;2024-01-15T03:22:37;3.05;;;2.85;;
68315;SDS011;55508;54.368;18.406;2024-01-15T03:25:04;3.20;;;3.00;;
68315;SDS011;55508;54.368;18.406;2024-01-15T03:27:31;2.95;;;2.75;;
68315;SDS011;55508;54.368;18.406;2024-01-15T03:29:58;3.33;;;3.03;;
68315;SDS011;55508;54.368;18.406;2024-01-15T03:32:25;3.53;;;2.70;;
68315;SDS011;55508;54.368;18.406;2024-01-15T03:34:52;4.30;;;2.88;;
68315;SDS011;55508;54.368;18.406;2024-01-15T03:37:19;3.13;;;2.88;;
68315;SDS011;55508;54.368;18.406;2024-01-15T03:39:46;3.63;;;3.33;;
68315;SDS011;55508;54.368;18.406;2024-01-15T03:42:13;3.80;;;3.60;;
68315;SDS011;55508;54.368;18.406;2024-01-15T03:44:41;3.85;;;3.53;;
68315;SDS011;55508;54.368;18.406;2024-01-15T03:47:08;3.78;;;3.47;;
68315;SDS011;55508;54.368;18.406;2024-01-15T03:49:34;4.45;;;4.15;;
68315;SDS011;55508;54.368;18.406;2024-01-15T03:52:01;4.68;;;4.38;;
68315;SDS011;55508;54.368;18.406;2024-01-15T03:54:29;5.10;;;4.18;;
68315;SDS011;55508;54.368;18.406;2024-01-15T03:56:57;4.25;;;3.92;;
68315;SDS011;55508;54.368;18.406;2024-01-15T03:59:24;3.60;;;3.40;;
68315;SDS011;55508;54.368;18.406;2024-01-15T04:01:51;6.18;;;4.18;;
68315;SDS011;55508;54.368;18.406;2024-01-15T04:04:18;3.65;;;3.35;;
68315;SDS011;55508;54.368;18.406;2024-01-15T04:06:45;4.07;;;3.78;;
68315;SDS011;55508;54.368;18.406;2024-01-15T04:09:13;3.22;;;3.03;;
68315;SDS011;55508;54.368;18.406;2024-01-15T04:11:40;3.40;;;3.20;;
68315;SDS011;55508;54.368;18.406;2024-01-15T04:14:08;3.88;;;3.40;;
68315;SDS011;55508;54.368;18.406;2024-01-15T04:16:35;3.63;;;3.35;;
68315;SDS011;55508;54.368;18.406;2024-01-15T04:19:02;3.88;;;3.63;;
68315;SDS011;55508;54.368;18.406;2024-01-15T04:21:29;3.60;;;3.40;;
68315;SDS011;55508;54.368;18.406;2024-01-15T04:23:56;3.63;;;3.33;;
68315;SDS011;55508;54.368;18.406;2024-01-15T04:26:23;3.30;;;3.10;;
68315;SDS011;55508;54.368;18.406;2024-01-15T04:28:50;3.28;;;3.08;;
68315;SDS011;55508;54.368;18.406;2024-01-15T04:31:20;3.40;;;3.20;;
68315;SDS011;55508;54.368;18.406;2024-01-15T04:33:49;3.00;;;2.80;;
68315;SDS011;55508;54.368;18.406;2024-01-15T04:36:16;3.42;;;2.90;;
68315;SDS011;55508;54.368;18.406;2024-01-15T04:38:43;3.55;;;3.35;;
68315;SDS011;55508;54.368;18.406;2024-01-15T04:41:13;3.80;;;3.50;;
68315;SDS011;55508;54.368;18.406;2024-01-15T04:43:40;4.25;;;3.95;;
68315;SDS011;55508;54.368;18.406;2024-01-15T04:46:07;4.57;;;4.18;;
68315;SDS011;55508;54.368;18.406;2024-01-15T04:48:34;3.88;;;3.58;;
68315;SDS011;55508;54.368;18.406;2024-01-15T04:51:04;3.58;;;3.28;;
68315;SDS011;55508;54.368;18.406;2024-01-15T04:53:32;3.70;;;3.50;;
68315;SDS011;55508;54.368;18.406;2024-01-15T04:56:01;3.88;;;3.58;;
68315;SDS011;55508;54.368;18.406;2024-01-15T04:58:28;3.47;;;3.28;;
68315;SDS011;55508;54.368;18.406;2024-01-15T05:00:55;4.90;;;4.50;;
68315;SDS011;55508;54.368;18.406;2024-01-15T05:03:23;4.80;;;4.40;;
68315;SDS011;55508;54.368;18.406;2024-01-15T05:05:50;4.03;;;3.72;;
68315;SDS011;55508;54.368;18.406;2024-01-15T05:08:17;3.70;;;3.40;;
68315;SDS011;55508;54.368;18.406;2024-01-15T05:10:44;3.30;;;3.10;;
68315;SDS011;55508;54.368;18.406;2024-01-15T05:13:11;3.17;;;2.97;;
68315;SDS011;55508;54.368;18.406;2024-01-15T05:15:38;1.88;;;1.77;;
68315;SDS011;55508;54.368;18.406;2024-01-15T05:18:06;1.55;;;1.45;;
68315;SDS011;55508;54.368;18.406;2024-01-15T05:20:33;1.80;;;1.30;;
68315;SDS011;55508;54.368;18.406;2024-01-15T05:23:01;2.65;;;1.40;;
68315;SDS011;55508;54.368;18.406;2024-01-15T05:25:28;1.67;;;1.58;;
68315;SDS011;55508;54.368;18.406;2024-01-15T05:27:55;4.57;;;1.70;;
68315;SDS011;55508;54.368;18.406;2024-01-15T05:30:22;3.22;;;2.38;;
68315;SDS011;55508;54.368;18.406;2024-01-15T05:32:49;3.25;;;1.60;;
68315;SDS011;55508;54.368;18.406;2024-01-15T05:35:16;2.25;;;1.50;;
68315;SDS011;55508;54.368;18.406;2024-01-15T05:37:44;1.90;;;1.08;;
68315;SDS011;55508;54.368;18.406;2024-01-15T05:40:12;2.00;;;1.38;;
68315;SDS011;55508;54.368;18.406;2024-01-15T05:42:40;3.70;;;1.35;;
68315;SDS011;55508;54.368;18.406;2024-01-15T05:45:08;1.55;;;1.45;;
68315;SDS011;55508;54.368;18.406;2024-01-15T05:47:35;1.75;;;1.52;;
68315;SDS011;55508;54.368;18.406;2024-01-15T05:50:03;1.42;;;0.90;;
68315;SDS011;55508;54.368;18.406;2024-01-15T05:52:30;2.40;;;1.30;;
68315;SDS011;55508;54.368;18.406;2024-01-15T05:54:57;2.80;;;1.38;;
68315;SDS011;55508;54.368;18.406;2024-01-15T05:57:24;2.65;;;1.75;;
68315;SDS011;55508;54.368;18.406;2024-01-15T05:59:51;3.90;;;1.60;;
68315;SDS011;55508;54.368;18.406;2024-01-15T06:02:18;3.33;;;1.30;;
68315;SDS011;55508;54.368;18.406;2024-01-15T06:04:45;7.43;;;1.70;;
68315;SDS011;55508;54.368;18.406;2024-01-15T06:07:12;3.55;;;1.50;;
68315;SDS011;55508;54.368;18.406;2024-01-15T06:09:39;4.72;;;1.38;;
68315;SDS011;55508;54.368;18.406;2024-01-15T06:12:07;2.90;;;1.30;;
68315;SDS011;55508;54.368;18.406;2024-01-15T06:14:34;5.78;;;1.90;;
68315;SDS011;55508;54.368;18.406;2024-01-15T06:17:01;3.28;;;1.50;;
68315;SDS011;55508;54.368;18.406;2024-01-15T06:19:29;3.42;;;1.80;;
68315;SDS011;55508;54.368;18.406;2024-01-15T06:21:56;6.93;;;2.33;;
68315;SDS011;55508;54.368;18.406;2024-01-15T06:24:23;5.68;;;2.38;;
68315;SDS011;55508;54.368;18.406;2024-01-15T06:26:51;7.38;;;2.13;;
68315;SDS011;55508;54.368;18.406;2024-01-15T06:29:18;5.97;;;2.05;;
68315;SDS011;55508;54.368;18.406;2024-01-15T06:31:45;5.15;;;2.20;;
68315;SDS011;55508;54.368;18.406;2024-01-15T06:34:12;8.75;;;2.40;;
68315;SDS011;55508;54.368;18.406;2024-01-15T06:36:39;9.18;;;3.00;;
68315;SDS011;55508;54.368;18.406;2024-01-15T06:39:06;9.57;;;3.13;;
68315;SDS011;55508;54.368;18.406;2024-01-15T06:41:33;13.85;;;4.60;;
68315;SDS011;55508;54.368;18.406;2024-01-15T06:44:00;9.15;;;4.63;;
68315;SDS011;55508;54.368;18.406;2024-01-15T06:46:27;13.57;;;5.20;;
68315;SDS011;55508;54.368;18.406;2024-01-15T06:48:54;12.93;;;6.35;;
68315;SDS011;55508;54.368;18.406;2024-01-15T06:51:22;13.18;;;5.63;;
68315;SDS011;55508;54.368;18.406;2024-01-15T06:53:49;10.60;;;5.57;;
68315;SDS011;55508;54.368;18.406;2024-01-15T06:56:16;10.00;;;6.10;;
68315;SDS011;55508;54.368;18.406;2024-01-15T06:58:43;11.77;;;6.32;;
68315;SDS011;55508;54.368;18.406;2024-01-15T07:01:10;16.80;;;7.20;;
68315;SDS011;55508;54.368;18.406;2024-01-15T07:03:37;12.60;;;6.20;;
68315;SDS011;55508;54.368;18.406;2024-01-15T07:06:04;12.30;;;5.60;;
68315;SDS011;55508;54.368;18.406;2024-01-15T07:08:32;11.60;;;7.00;;
68315;SDS011;55508;54.368;18.406;2024-01-15T07:10:59;10.57;;;5.70;;
68315;SDS011;55508;54.368;18.406;2024-01-15T07:13:26;16.20;;;6.65;;
68315;SDS011;55508;54.368;18.406;2024-01-15T07:15:53;14.48;;;6.82;;
68315;SDS011;55508;54.368;18.406;2024-01-15T07:18:20;14.88;;;7.03;;
68315;SDS011;55508;54.368;18.406;2024-01-15T07:20:47;17.45;;;6.75;;
68315;SDS011;55508;54.368;18.406;2024-01-15T07:23:14;15.52;;;5.13;;
68315;SDS011;55508;54.368;18.406;2024-01-15T07:25:41;7.20;;;4.65;;
68315;SDS011;55508;54.368;18.406;2024-01-15T07:28:08;7.15;;;4.35;;
68315;SDS011;55508;54.368;18.406;2024-01-15T07:30:36;7.00;;;3.58;;
68315;SDS011;55508;54.368;18.406;2024-01-15T07:33:05;3.03;;;2.70;;
68315;SDS011;55508;54.368;18.406;2024-01-15T07:35:32;4.88;;;3.78;;
68315;SDS011;55508;54.368;18.406;2024-01-15T07:37:59;7.70;;;3.30;;
68315;SDS011;55508;54.368;18.406;2024-01-15T07:40:26;7.78;;;4.07;;
68315;SDS011;55508;54.368;18.406;2024-01-15T07:42:53;6.78;;;3.45;;
68315;SDS011;55508;54.368;18.406;2024-01-15T07:45:21;5.65;;;3.38;;
68315;SDS011;55508;54.368;18.406;2024-01-15T07:47:48;6.18;;;3.65;;
68315;SDS011;55508;54.368;18.406;2024-01-15T07:50:16;8.25;;;4.43;;
68315;SDS011;55508;54.368;18.406;2024-01-15T07:52:43;4.50;;;3.65;;
68315;SDS011;55508;54.368;18.406;2024-01-15T07:55:10;4.18;;;3.42;;
68315;SDS011;55508;54.368;18.406;2024-01-15T07:57:37;11.15;;;6.13;;
68315;SDS011;55508;54.368;18.406;2024-01-15T08:00:04;7.50;;;4.97;;
68315;SDS011;55508;54.368;18.406;2024-01-15T08:02:32;7.57;;;3.95;;
68315;SDS011;55508;54.368;18.406;2024-01-15T08:05:03;6.60;;;4.18;;
68315;SDS011;55508;54.368;18.406;2024-01-15T08:07:30;5.60;;;4.03;;
68315;SDS011;55508;54.368;18.406;2024-01-15T08:09:57;7.05;;;5.28;;
68315;SDS011;55508;54.368;18.406;2024-01-15T08:12:25;8.32;;;4.00;;
68315;SDS011;55508;54.368;18.406;2024-01-15T08:14:52;9.52;;;4.03;;
68315;SDS011;55508;54.368;18.406;2024-01-15T08:17:20;4.85;;;4.13;;
68315;SDS011;55508;54.368;18.406;2024-01-15T08:19:47;9.25;;;4.47;;
68315;SDS011;55508;54.368;18.406;2024-01-15T08:22:15;6.13;;;4.20;;
68315;SDS011;55508;54.368;18.406;2024-01-15T08:24:42;5.28;;;4.03;;
68315;SDS011;55508;54.368;18.406;2024-01-15T08:27:09;7.95;;;3.58;;
68315;SDS011;55508;54.368;18.406;2024-01-15T08:29:36;5.45;;;4.03;;
68315;SDS011;55508;54.368;18.406;2024-01-15T08:32:03;6.50;;;4.00;;
68315;SDS011;55508;54.368;18.406;2024-01-15T08:34:31;6.40;;;3.80;;
68315;SDS011;55508;54.368;18.406;2024-01-15T08:36:58;5.35;;;3.28;;
68315;SDS011;55508;54.368;18.406;2024-01-15T08:39:25;5.78;;;3.10;;
68315;SDS011;55508;54.368;18.406;2024-01-15T08:41:52;7.03;;;4.07;;
68315;SDS011;55508;54.368;18.406;2024-01-15T08:44:19;5.75;;;3.60;;
68315;SDS011;55508;54.368;18.406;2024-01-15T08:46:46;9.95;;;4.30;;
68315;SDS011;55508;54.368;18.406;2024-01-15T08:49:13;6.90;;;3.88;;
68315;SDS011;55508;54.368;18.406;2024-01-15T08:51:40;7.80;;;2.88;;
68315;SDS011;55508;54.368;18.406;2024-01-15T08:54:07;7.10;;;3.70;;
68315;SDS011;55508;54.368;18.406;2024-01-15T08:56:35;2.83;;;2.22;;
68315;SDS011;55508;54.368;18.406;2024-01-15T08:59:02;2.15;;;1.40;;
68315;SDS011;55508;54.368;18.406;2024-01-15T09:01:29;2.47;;;1.33;;
68315;SDS011;55508;54.368;18.406;2024-01-15T09:03:57;6.00;;;2.40;;
68315;SDS011;55508;54.368;18.406;2024-01-15T09:06:24;1.58;;;0.98;;
68315;SDS011;55508;54.368;18.406;2024-01-15T09:08:51;4.43;;;1.60;;
68315;SDS011;55508;54.368;18.406;2024-01-15T09:11:18;4.22;;;2.08;;
68315;SDS011;55508;54.368;18.406;2024-01-15T09:13:45;3.50;;;1.70;;
68315;SDS011;55508;54.368;18.406;2024-01-15T09:16:12;3.83;;;2.60;;
68315;SDS011;55508;54.368;18.406;2024-01-15T09:18:40;3.47;;;2.20;;
68315;SDS011;55508;54.368;18.406;2024-01-15T09:21:07;4.43;;;2.40;;
68315;SDS011;55508;54.368;18.406;2024-01-15T09:23:34;2.78;;;2.15;;
68315;SDS011;55508;54.368;18.406;2024-01-15T09:26:02;4.07;;;2.22;;
68315;SDS011;55508;54.368;18.406;2024-01-15T09:28:29;4.60;;;2.05;;
68315;SDS011;55508;54.368;18.406;2024-01-15T09:30:56;4.68;;;2.78;;
68315;SDS011;55508;54.368;18.406;2024-01-15T09:33:23;4.40;;;3.03;;
68315;SDS011;55508;54.368;18.406;2024-01-15T09:35:50;5.43;;;3.00;;
68315;SDS011;55508;54.368;18.406;2024-01-15T09:38:17;3.97;;;2.97;;
68315;SDS011;55508;54.368;18.406;2024-01-15T09:40:45;7.30;;;3.60;;
68315;SDS011;55508;54.368;18.406;2024-01-15T09:43:13;6.47;;;3.88;;
68315;SDS011;55508;54.368;18.406;2024-01-15T09:45:42;12.05;;;4.32;;
68315;SDS011;55508;54.368;18.406;2024-01-15T09:48:10;7.47;;;3.80;;
68315;SDS011;55508;54.368;18.406;2024-01-15T09:50:37;6.20;;;3.65;;
68315;SDS011;55508;54.368;18.406;2024-01-15T09:53:05;19.17;;;5.03;;
68315;SDS011;55508;54.368;18.406;2024-01-15T09:55:32;11.75;;;4.65;;
68315;SDS011;55508;54.368;18.406;2024-01-15T09:58:00;6.10;;;2.45;;
68315;SDS011;55508;54.368;18.406;2024-01-15T10:00:28;9.63;;;3.70;;
68315;SDS011;55508;54.368;18.406;2024-01-15T10:02:59;5.73;;;2.50;;
68315;SDS011;55508;54.368;18.406;2024-01-15T10:05:27;2.28;;;1.60;;
68315;SDS011;55508;54.368;18.406;2024-01-15T10:07:54;4.57;;;1.90;;
68315;SDS011;55508;54.368;18.406;2024-01-15T10:10:23;3.53;;;1.60;;
68315;SDS011;55508;54.368;18.406;2024-01-15T10:12:50;2.42;;;1.38;;
68315;SDS011;55508;54.368;18.406;2024-01-15T10:15:17;4.20;;;1.02;;
68315;SDS011;55508;54.368;18.406;2024-01-15T10:17:44;4.63;;;1.20;;
68315;SDS011;55508;54.368;18.406;2024-01-15T10:20:12;4.03;;;1.20;;
68315;SDS011;55508;54.368;18.406;2024-01-15T10:22:40;2.30;;;1.38;;
68315;SDS011;55508;54.368;18.406;2024-01-15T10:25:14;3.17;;;1.58;;
68315;SDS011;55508;54.368;18.406;2024-01-15T10:27:42;2.97;;;1.52;;
68315;SDS011;55508;54.368;18.406;2024-01-15T10:30:10;3.67;;;2.28;;
68315;SDS011;55508;54.368;18.406;2024-01-15T10:32:37;5.88;;;2.50;;
68315;SDS011;55508;54.368;18.406;2024-01-15T10:35:05;7.95;;;3.88;;
68315;SDS011;55508;54.368;18.406;2024-01-15T10:37:34;4.88;;;3.13;;
68315;SDS011;55508;54.368;18.406;2024-01-15T10:40:01;6.22;;;3.70;;
68315;SDS011;55508;54.368;18.406;2024-01-15T10:42:31;7.37;;;3.07;;
68315;SDS011;55508;54.368;18.406;2024-01-15T10:44:59;7.47;;;3.70;;
68315;SDS011;55508;54.368;18.406;2024-01-15T10:47:26;6.95;;;3.75;;
68315;SDS011;55508;54.368;18.406;2024-01-15T10:49:53;6.80;;;3.00;;
68315;SDS011;55508;54.368;18.406;2024-01-15T10:52:21;7.85;;;4.70;;
68315;SDS011;55508;54.368;18.406;2024-01-15T10:54:48;8.90;;;4.82;;
68315;SDS011;55508;54.368;18.406;2024-01-15T10:57:15;7.63;;;3.72;;
68315;SDS011;55508;54.368;18.406;2024-01-15T10:59:43;7.85;;;3.15;;
68315;SDS011;55508;54.368;18.406;2024-01-15T11:02:11;5.60;;;3.42;;
68315;SDS011;55508;54.368;18.406;2024-01-15T11:04:40;7.45;;;4.35;;
68315;SDS011;55508;54.368;18.406;2024-01-15T11:07:07;14.65;;;5.88;;
68315;SDS011;55508;54.368;18.406;2024-01-15T11:09:34;5.97;;;2.92;;
68315;SDS011;55508;54.368;18.406;2024-01-15T11:12:11;3.38;;;2.30;;
68315;SDS011;55508;54.368;18.406;2024-01-15T11:14:40;3.95;;;1.80;;
68315;SDS011;55508;54.368;18.406;2024-01-15T11:17:15;3.03;;;1.65;;
68315;SDS011;55508;54.368;18.406;2024-01-15T11:19:44;3.50;;;1.83;;
68315;SDS011;55508;54.368;18.406;2024-01-15T11:25:15;3.70;;;1.67;;
68315;SDS011;55508;54.368;18.406;2024-01-15T11:27:43;3.92;;;1.60;;
68315;SDS011;55508;54.368;18.406;2024-01-15T11:30:11;3.60;;;1.00;;
68315;SDS011;55508;54.368;18.406;2024-01-15T11:32:40;4.10;;;1.30;;
68315;SDS011;55508;54.368;18.406;2024-01-15T11:35:08;4.40;;;1.52;;
68315;SDS011;55508;54.368;18.406;2024-01-15T11:40:36;3.30;;;2.47;;
68315;SDS011;55508;54.368;18.406;2024-01-15T11:43:05;3.40;;;1.40;;
68315;SDS011;55508;54.368;18.406;2024-01-15T11:45:33;1.90;;;1.27;;
68315;SDS011;55508;54.368;18.406;2024-01-15T11:50:50;2.80;;;1.48;;
68315;SDS011;55508;54.368;18.406;2024-01-15T11:53:27;4.47;;;1.80;;
68315;SDS011;55508;54.368;18.406;2024-01-15T11:56:03;4.68;;;2.05;;
68315;SDS011;55508;54.368;18.406;2024-01-15T11:58:33;4.50;;;2.10;;
68315;SDS011;55508;54.368;18.406;2024-01-15T12:01:02;5.10;;;2.85;;
68315;SDS011;55508;54.368;18.406;2024-01-15T12:03:31;5.65;;;3.38;;
68315;SDS011;55508;54.368;18.406;2024-01-15T12:05:59;4.38;;;2.88;;
68315;SDS011;55508;54.368;18.406;2024-01-15T12:08:28;3.78;;;2.88;;
68315;SDS011;55508;54.368;18.406;2024-01-15T12:10:55;3.65;;;3.10;;
68315;SDS011;55508;54.368;18.406;2024-01-15T12:13:23;5.68;;;3.72;;
68315;SDS011;55508;54.368;18.406;2024-01-15T12:15:51;5.28;;;3.90;;
68315;SDS011;55508;54.368;18.406;2024-01-15T12:18:18;5.63;;;3.97;;
68315;SDS011;55508;54.368;18.406;2024-01-15T12:20:46;6.78;;;4.55;;
68315;SDS011;55508;54.368;18.406;2024-01-15T12:23:14;10.05;;;6.68;;
68315;SDS011;55508;54.368;18.406;2024-01-15T12:25:43;8.80;;;5.45;;
68315;SDS011;55508;54.368;18.406;2024-01-15T12:28:10;6.93;;;4.68;;
68315;SDS011;55508;54.368;18.406;2024-01-15T12:30:38;6.68;;;3.92;;
68315;SDS011;55508;54.368;18.406;2024-01-15T12:33:06;9.73;;;5.40;;
68315;SDS011;55508;54.368;18.406;2024-01-15T12:35:34;9.98;;;4.22;;
68315;SDS011;55508;54.368;18.406;2024-01-15T12:38:01;5.45;;;3.13;;
68315;SDS011;55508;54.368;18.406;2024-01-15T12:40:32;5.30;;;3.50;;
68315;SDS011;55508;54.368;18.406;2024-01-15T12:43:03;6.47;;;4.57;;
68315;SDS011;55508;54.368;18.406;2024-01-15T12:45:30;3.60;;;2.33;;
68315;SDS011;55508;54.368;18.406;2024-01-15T12:47:58;5.85;;;2.70;;
68315;SDS011;55508;54.368;18.406;2024-01-15T12:50:26;2.85;;;2.20;;
68315;SDS011;55508;54.368;18.406;2024-01-15T12:52:54;1.98;;;1.35;;
68315;SDS011;55508;54.368;18.406;2024-01-15T12:55:21;3.60;;;1.98;;
68315;SDS011;55508;54.368;18.406;2024-01-15T12:57:49;3.83;;;2.97;;
68315;SDS011;55508;54.368;18.406;2024-01-15T13:00:19;6.20;;;3.28;;
68315;SDS011;55508;54.368;18.406;2024-01-15T13:02:47;2.15;;;1.60;;
68315;SDS011;55508;54.368;18.406;2024-01-15T13:05:14;4.15;;;2.65;;
68315;SDS011;55508;54.368;18.406;2024-01-15T13:07:43;2.58;;;1.48;;
68315;SDS011;55508;54.368;18.406;2024-01-15T13:10:10;2.65;;;2.10;;
68315;SDS011;55508;54.368;18.406;2024-01-15T13:12:39;2.83;;;2.10;;
68315;SDS011;55508;54.368;18.406;2024-01-15T13:15:07;1.88;;;1.52;;
68315;SDS011;55508;54.368;18.406;2024-01-15T13:17:41;2.88;;;1.77;;
68315;SDS011;55508;54.368;18.406;2024-01-15T13:20:09;5.55;;;3.00;;
68315;SDS011;55508;54.368;18.406;2024-01-15T13:22:38;5.97;;;3.03;;
68315;SDS011;55508;54.368;18.406;2024-01-15T13:25:07;4.45;;;2.40;;
68315;SDS011;55508;54.368;18.406;2024-01-15T13:27:35;5.80;;;4.15;;
68315;SDS011;55508;54.368;18.406;2024-01-15T13:30:05;2.95;;;2.28;;
68315;SDS011;55508;54.368;18.406;2024-01-15T13:32:35;2.05;;;1.75;;
68315;SDS011;55508;54.368;18.406;2024-01-15T13:35:02;1.70;;;1.33;;
68315;SDS011;55508;54.368;18.406;2024-01-15T13:37:32;1.98;;;1.77;;
68315;SDS011;55508;54.368;18.406;2024-01-15T13:39:59;2.92;;;2.20;;
68315;SDS011;55508;54.368;18.406;2024-01-15T13:42:27;9.60;;;3.53;;
68315;SDS011;55508;54.368;18.406;2024-01-15T13:44:54;5.40;;;2.97;;
68315;SDS011;55508;54.368;18.406;2024-01-15T13:47:21;5.78;;;2.60;;
68315;SDS011;55508;54.368;18.406;2024-01-15T13:49:49;8.32;;;3.95;;
68315;SDS011;55508;54.368;18.406;2024-01-15T13:52:16;5.65;;;3.30;;
68315;SDS011;55508;54.368;18.406;2024-01-15T13:54:44;4.25;;;1.98;;
68315;SDS011;55508;54.368;18.406;2024-01-15T13:57:16;9.57;;;3.60;;
68315;SDS011;55508;54.368;18.406;2024-01-15T13:59:45;13.38;;;5.00;;
68315;SDS011;55508;54.368;18.406;2024-01-15T14:02:13;11.27;;;3.05;;
68315;SDS011;55508;54.368;18.406;2024-01-15T14:04:46;6.32;;;2.60;;
68315;SDS011;55508;54.368;18.406;2024-01-15T14:07:14;5.43;;;2.03;;
68315;SDS011;55508;54.368;18.406;2024-01-15T14:09:42;6.50;;;2.78;;
68315;SDS011;55508;54.368;18.406;2024-01-15T14:12:09;7.75;;;3.33;;
68315;SDS011;55508;54.368;18.406;2024-01-15T14:14:36;7.70;;;3.80;;
68315;SDS011;55508;54.368;18.406;2024-01-15T14:17:05;6.47;;;3.22;;
68315;SDS011;55508;54.368;18.406;2024-01-15T14:19:32;11.18;;;5.72;;
68315;SDS011;55508;54.368;18.406;2024-01-15T14:21:59;9.45;;;4.72;;
68315;SDS011;55508;54.368;18.406;2024-01-15T14:24:26;17.08;;;7.05;;
68315;SDS011;55508;54.368;18.406;2024-01-15T14:26:53;22.40;;;9.77;;
68315;SDS011;55508;54.368;18.406;2024-01-15T14:29:20;18.35;;;7.40;;
68315;SDS011;55508;54.368;18.406;2024-01-15T14:31:49;9.07;;;4.07;;
68315;SDS011;55508;54.368;18.406;2024-01-15T14:34:16;29.55;;;12.77;;
68315;SDS011;55508;54.368;18.406;2024-01-15T14:36:45;26.55;;;9.55;;
68315;SDS011;55508;54.368;18.406;2024-01-15T14:39:13;11.23;;;5.40;;
68315;SDS011;55508;54.368;18.406;2024-01-15T14:41:40;9.40;;;5.43;;
68315;SDS011;55508;54.368;18.406;2024-01-15T14:44:07;24.40;;;11.68;;